Time;durP1;ratioP1;P1;durP2;ratioP2;P2;SDS_P1;SDS_P2;PMS_P1;PMS_P2;Temp;Humidity;BMP_temperature;BMP_pressure;BME280_temperature;BME280_humidity;BME280_pressure;Samples;Min_cycle;Max_cycle;Signal;HPM_P1;HPM_P2
2022/09/02 00:00:06;;;;;;;0.95;0.35;;;;;;;;;;2034868;29;20040;-62
2022/09/02 00:01:24;;;;;;;1.10;0.20;;;;;;;;;;2036305;29;20032;-62
2022/09/02 00:02:43;;;;;;;0.88;0.40;;;;;;;;;;2040241;29;20043;-62
2022/09/02 00:04:05;;;;;;;0.52;0.40;;;;;;;;;;2037021;29;20043;-62
2022/09/02 00:05:24;;;;;;;0.65;0.30;;;;;;;;;;2041616;28;20043;-62
2022/09/02 00:06:44;;;;;;;0.52;0.40;;;;;;;;;;2042629;29;21018;-64
2022/09/02 00:08:03;;;;;;;0.73;0.63;;;;;;;;;;2042942;29;20027;-63
2022/09/02 00:09:23;;;;;;;0.80;0.30;;;;;;;;;;2043927;29;20035;-63
2022/09/02 00:10:43;;;;;;;0.40;0.30;;;;;;;;;;2043231;29;20023;-64
2022/09/02 00:12:03;;;;;;;0.77;0.38;;;;;;;;;;2039530;29;20032;-64
2022/09/02 00:13:22;;;;;;;3.30;0.47;;;;;;;;;;2042753;29;20035;-64
2022/09/02 00:14:41;;;;;;;0.90;0.30;;;;;;;;;;2041907;29;20384;-63
2022/09/02 00:16:00;;;;;;;0.85;0.70;;;;;;;;;;2041172;29;20032;-63
2022/09/02 00:17:19;;;;;;;1.83;0.30;;;;;;;;;;2050674;28;20043;-63
2022/09/02 00:18:39;;;;;;;0.80;0.43;;;;;;;;;;2045523;28;20031;-63
2022/09/02 00:19:58;;;;;;;0.57;0.40;;;;;;;;;;2042273;29;20153;-63
2022/09/02 00:21:17;;;;;;;0.63;0.40;;;;;;;;;;2043230;29;20063;-63
2022/09/02 00:22:36;;;;;;;0.55;0.40;;;;;;;;;;2042213;29;20040;-62
2022/09/02 00:23:55;;;;;;;0.95;0.45;;;;;;;;;;2041956;29;20043;-61
2022/09/02 00:25:14;;;;;;;0.85;0.32;;;;;;;;;;2043886;29;20115;-62
2022/09/02 00:26:33;;;;;;;0.40;0.30;;;;;;;;;;2040268;29;20054;-62
2022/09/02 00:27:52;;;;;;;0.50;0.35;;;;;;;;;;2041094;29;20032;-62
2022/09/02 00:29:13;;;;;;;0.50;0.30;;;;;;;;;;2040904;29;20036;-62
2022/09/02 00:30:32;;;;;;;4.40;0.60;;;;;;;;;;2039580;29;20047;-62
2022/09/02 00:31:51;;;;;;;1.42;0.40;;;;;;;;;;2047660;28;20050;-63
2022/09/02 00:33:11;;;;;;;0.45;0.45;;;;;;;;;;2045610;28;20486;-62
2022/09/02 00:34:30;;;;;;;0.80;0.30;;;;;;;;;;2039201;29;20035;-63
2022/09/02 00:35:49;;;;;;;0.73;0.25;;;;;;;;;;2044926;28;20492;-62
2022/09/02 00:37:08;;;;;;;0.90;0.30;;;;;;;;;;2041697;29;20032;-63
2022/09/02 00:38:28;;;;;;;0.45;0.40;;;;;;;;;;2042591;28;20118;-62
2022/09/02 00:39:47;;;;;;;0.88;0.38;;;;;;;;;;2042421;29;20044;-62
2022/09/02 00:41:07;;;;;;;2.35;0.50;;;;;;;;;;2041963;29;20106;-61
2022/09/02 00:42:27;;;;;;;0.40;0.40;;;;;;;;;;2044127;29;20110;-61
2022/09/02 00:43:48;;;;;;;0.30;0.30;;;;;;;;;;2041884;29;20032;-62
2022/09/02 00:45:08;;;;;;;1.00;0.40;;;;;;;;;;2042021;29;20031;-62
2022/09/02 00:46:28;;;;;;;1.67;0.30;;;;;;;;;;2039257;29;20038;-62
2022/09/02 00:47:50;;;;;;;0.88;0.30;;;;;;;;;;2043453;29;20489;-62
2022/09/02 00:49:13;;;;;;;0.98;0.35;;;;;;;;;;2041728;29;20031;-63
2022/09/02 00:50:34;;;;;;;0.63;0.30;;;;;;;;;;2043123;29;20031;-63
2022/09/02 00:52:11;;;;;;;0.88;0.40;;;;;;;;;;2049753;28;20134;-62
2022/09/02 00:53:31;;;;;;;0.38;0.30;;;;;;;;;;2048909;28;20031;-63
2022/09/02 00:54:56;;;;;;;0.82;0.22;;;;;;;;;;2048840;28;20034;-62
2022/09/02 00:56:19;;;;;;;0.93;0.40;;;;;;;;;;2049751;28;20027;-62
2022/09/02 00:57:40;;;;;;;2.72;0.50;;;;;;;;;;2050776;28;20113;-62
2022/09/02 00:58:59;;;;;;;0.60;0.30;;;;;;;;;;2040531;29;20032;-62
2022/09/02 01:00:20;;;;;;;0.80;0.40;;;;;;;;;;2045925;28;20035;-62
2022/09/02 01:01:39;;;;;;;0.68;0.30;;;;;;;;;;2050889;28;20031;-62
2022/09/02 01:02:59;;;;;;;0.50;0.35;;;;;;;;;;2052850;28;20035;-62
2022/09/02 01:04:19;;;;;;;0.80;0.52;;;;;;;;;;2047463;28;20162;-62
2022/09/02 01:05:43;;;;;;;0.75;0.40;;;;;;;;;;2047716;28;20047;-62
2022/09/02 01:07:03;;;;;;;1.17;0.60;;;;;;;;;;2051852;28;20057;-62
2022/09/02 01:08:28;;;;;;;0.50;0.43;;;;;;;;;;2051782;28;20024;-62
2022/09/02 01:09:48;;;;;;;0.57;0.30;;;;;;;;;;2051306;28;20039;-62
2022/09/02 01:11:07;;;;;;;1.98;0.70;;;;;;;;;;2050558;28;20066;-63
2022/09/02 01:12:28;;;;;;;1.45;0.65;;;;;;;;;;2051452;28;20031;-62
2022/09/02 01:13:47;;;;;;;0.73;0.30;;;;;;;;;;2051090;28;20505;-63
2022/09/02 01:15:07;;;;;;;1.60;0.50;;;;;;;;;;2048769;28;20108;-63
2022/09/02 01:16:32;;;;;;;1.08;0.20;;;;;;;;;;2043307;29;20028;-62
2022/09/02 01:17:51;;;;;;;1.20;0.82;;;;;;;;;;2047936;28;20461;-62
2022/09/02 01:19:22;;;;;;;1.45;0.47;;;;;;;;;;2051748;28;20023;-62
2022/09/02 01:20:42;;;;;;;1.10;0.40;;;;;;;;;;2051795;28;20114;-62
2022/09/02 01:22:01;;;;;;;0.40;0.30;;;;;;;;;;2050406;28;20408;-62
2022/09/02 01:23:20;;;;;;;1.20;0.47;;;;;;;;;;2049695;28;20113;-62
2022/09/02 01:24:39;;;;;;;0.85;0.50;;;;;;;;;;2049001;28;20028;-62
2022/09/02 01:25:58;;;;;;;1.13;0.60;;;;;;;;;;2047436;28;20481;-63
2022/09/02 01:27:19;;;;;;;1.23;0.32;;;;;;;;;;2050895;28;20027;-62
2022/09/02 01:28:37;;;;;;;1.23;0.50;;;;;;;;;;2051969;28;20397;-62
2022/09/02 01:29:57;;;;;;;0.40;0.38;;;;;;;;;;2048768;28;20023;-62
2022/09/02 01:31:16;;;;;;;0.90;0.57;;;;;;;;;;2050841;28;20118;-62
2022/09/02 01:32:35;;;;;;;2.10;0.50;;;;;;;;;;2051725;28;20030;-62
2022/09/02 01:33:54;;;;;;;1.60;0.47;;;;;;;;;;2051955;28;20039;-62
2022/09/02 01:35:14;;;;;;;0.60;0.30;;;;;;;;;;2044313;28;20035;-63
2022/09/02 01:36:36;;;;;;;1.30;0.50;;;;;;;;;;2049984;28;20031;-62
2022/09/02 01:37:55;;;;;;;0.52;0.30;;;;;;;;;;2049874;28;20035;-62
2022/09/02 01:39:14;;;;;;;0.47;0.40;;;;;;;;;;2051955;28;20070;-62
2022/09/02 01:40:33;;;;;;;0.40;0.40;;;;;;;;;;2048634;28;20462;-62
2022/09/02 01:41:52;;;;;;;0.65;0.30;;;;;;;;;;2049561;28;20424;-62
2022/09/02 01:43:13;;;;;;;0.38;0.32;;;;;;;;;;2050871;28;20086;-62
2022/09/02 01:44:33;;;;;;;1.63;0.40;;;;;;;;;;2051302;28;20487;-62
2022/09/02 01:45:53;;;;;;;1.38;0.47;;;;;;;;;;2050142;28;20035;-62
2022/09/02 01:47:14;;;;;;;1.85;0.40;;;;;;;;;;2050574;28;20484;-62
2022/09/02 01:48:33;;;;;;;0.30;0.30;;;;;;;;;;2051590;28;20546;-63
2022/09/02 01:49:52;;;;;;;0.98;0.65;;;;;;;;;;2047527;28;20039;-62
2022/09/02 01:51:15;;;;;;;3.33;0.40;;;;;;;;;;2052115;28;20058;-62
2022/09/02 01:52:34;;;;;;;0.82;0.43;;;;;;;;;;2049568;28;20043;-62
2022/09/02 01:53:53;;;;;;;2.28;0.40;;;;;;;;;;2046374;28;20046;-62
2022/09/02 01:55:12;;;;;;;0.50;0.30;;;;;;;;;;2049786;28;20046;-63
2022/09/02 01:56:31;;;;;;;0.70;0.30;;;;;;;;;;2048796;28;20047;-63
2022/09/02 01:57:50;;;;;;;0.60;0.50;;;;;;;;;;2051475;28;20031;-63
2022/09/02 01:59:10;;;;;;;0.35;0.30;;;;;;;;;;2048734;28;20031;-63
2022/09/02 02:00:29;;;;;;;1.58;0.45;;;;;;;;;;2047045;28;20059;-62
2022/09/02 02:01:48;;;;;;;0.50;0.40;;;;;;;;;;2050966;28;20039;-62
2022/09/02 02:03:08;;;;;;;1.58;0.47;;;;;;;;;;2049256;28;20036;-62
2022/09/02 02:04:27;;;;;;;1.27;0.30;;;;;;;;;;2051246;28;20039;-62
2022/09/02 02:05:47;;;;;;;1.45;0.30;;;;;;;;;;2047449;28;20126;-62
2022/09/02 02:07:06;;;;;;;0.60;0.30;;;;;;;;;;2048397;28;20421;-63
2022/09/02 02:08:24;;;;;;;0.98;0.28;;;;;;;;;;2050711;28;20126;-63
2022/09/02 02:09:44;;;;;;;3.10;0.35;;;;;;;;;;2051615;28;20027;-63
2022/09/02 02:11:03;;;;;;;1.65;0.30;;;;;;;;;;2048263;28;20051;-62
2022/09/02 02:12:22;;;;;;;0.40;0.40;;;;;;;;;;2050555;28;20037;-62
2022/09/02 02:13:41;;;;;;;0.47;0.30;;;;;;;;;;2047181;28;20040;-63
2022/09/02 02:15:01;;;;;;;0.82;0.30;;;;;;;;;;2048499;28;20032;-63
2022/09/02 02:16:20;;;;;;;2.20;0.38;;;;;;;;;;2051334;28;20035;-62
2022/09/02 02:17:39;;;;;;;0.40;0.30;;;;;;;;;;2049538;28;20081;-62
2022/09/02 02:18:58;;;;;;;0.98;0.30;;;;;;;;;;2051722;28;20035;-62
2022/09/02 02:20:19;;;;;;;0.68;0.40;;;;;;;;;;2049154;28;20027;-63
2022/09/02 02:21:38;;;;;;;0.32;0.30;;;;;;;;;;2051569;28;20031;-62
2022/09/02 02:22:57;;;;;;;0.80;0.50;;;;;;;;;;2051142;28;20027;-62
2022/09/02 02:24:16;;;;;;;3.70;0.60;;;;;;;;;;2047518;28;20436;-63
2022/09/02 02:25:35;;;;;;;1.00;0.40;;;;;;;;;;2048675;28;20079;-63
2022/09/02 02:26:54;;;;;;;0.43;0.32;;;;;;;;;;2049945;28;20023;-63
2022/09/02 02:28:13;;;;;;;0.73;0.43;;;;;;;;;;2051649;28;20023;-62
2022/09/02 02:29:32;;;;;;;0.77;0.40;;;;;;;;;;2048881;28;20110;-63
2022/09/02 02:30:51;;;;;;;1.38;0.20;;;;;;;;;;2047608;28;20043;-62
2022/09/02 02:32:10;;;;;;;0.88;0.40;;;;;;;;;;2051067;28;20023;-63
2022/09/02 02:33:29;;;;;;;2.92;0.50;;;;;;;;;;2050780;28;20031;-62
2022/09/02 02:34:48;;;;;;;1.10;0.30;;;;;;;;;;2049780;28;20028;-62
2022/09/02 02:36:07;;;;;;;1.75;0.40;;;;;;;;;;2047384;28;20678;-62
2022/09/02 02:37:26;;;;;;;1.77;0.50;;;;;;;;;;2049034;28;20047;-63
2022/09/02 02:38:45;;;;;;;0.20;0.20;;;;;;;;;;2051584;28;20031;-63
2022/09/02 02:40:05;;;;;;;2.70;0.70;;;;;;;;;;2049793;28;20392;-63
2022/09/02 02:41:24;;;;;;;1.42;0.38;;;;;;;;;;2050341;28;20046;-63
2022/09/02 02:42:43;;;;;;;0.30;0.20;;;;;;;;;;2051629;28;20492;-63
2022/09/02 02:44:02;;;;;;;1.13;0.20;;;;;;;;;;2049653;28;20039;-63
2022/09/02 02:45:22;;;;;;;2.72;0.40;;;;;;;;;;2048871;28;20059;-63
2022/09/02 02:46:42;;;;;;;1.20;0.30;;;;;;;;;;2049507;28;20039;-62
2022/09/02 02:48:01;;;;;;;1.23;0.57;;;;;;;;;;2050335;28;20023;-63
2022/09/02 02:49:22;;;;;;;0.30;0.20;;;;;;;;;;2052562;28;20028;-63
2022/09/02 02:50:41;;;;;;;0.68;0.30;;;;;;;;;;2052297;28;20027;-62
2022/09/02 02:52:00;;;;;;;0.43;0.20;;;;;;;;;;2050125;28;20046;-63
2022/09/02 02:53:19;;;;;;;1.38;0.60;;;;;;;;;;2052232;28;20032;-63
2022/09/02 02:54:38;;;;;;;0.70;0.32;;;;;;;;;;2051550;28;20484;-62
2022/09/02 02:55:58;;;;;;;0.85;0.35;;;;;;;;;;2051139;28;20043;-63
2022/09/02 02:57:17;;;;;;;0.73;0.30;;;;;;;;;;2050816;28;20035;-62
2022/09/02 02:58:36;;;;;;;1.25;0.40;;;;;;;;;;2051103;28;20035;-63
2022/09/02 02:59:56;;;;;;;0.50;0.20;;;;;;;;;;2050223;28;20043;-62
2022/09/02 03:01:16;;;;;;;1.02;0.38;;;;;;;;;;2050670;28;20039;-63
2022/09/02 03:02:35;;;;;;;0.57;0.35;;;;;;;;;;2051920;28;20039;-62
2022/09/02 03:03:53;;;;;;;0.60;0.30;;;;;;;;;;2050700;28;20484;-63
2022/09/02 03:05:13;;;;;;;0.32;0.32;;;;;;;;;;2049773;28;20038;-63
2022/09/02 03:06:32;;;;;;;0.65;0.35;;;;;;;;;;2051796;28;20484;-62
2022/09/02 03:07:51;;;;;;;0.43;0.32;;;;;;;;;;2053082;28;20031;-62
2022/09/02 03:09:10;;;;;;;1.30;0.40;;;;;;;;;;2053319;28;20030;-62
2022/09/02 03:10:31;;;;;;;1.00;0.38;;;;;;;;;;2051612;28;20039;-63
2022/09/02 03:11:50;;;;;;;1.98;0.50;;;;;;;;;;2049924;28;20047;-63
2022/09/02 03:13:10;;;;;;;1.00;0.40;;;;;;;;;;2051960;28;20035;-63
2022/09/02 03:14:29;;;;;;;3.63;0.32;;;;;;;;;;2052275;28;20110;-63
2022/09/02 03:15:49;;;;;;;0.20;0.20;;;;;;;;;;2047996;28;20563;-62
2022/09/02 03:17:08;;;;;;;1.33;0.30;;;;;;;;;;2050706;28;20027;-62
2022/09/02 03:18:27;;;;;;;0.38;0.20;;;;;;;;;;2051150;28;20163;-62
2022/09/02 03:19:46;;;;;;;0.95;0.35;;;;;;;;;;2050870;28;20031;-63
2022/09/02 03:21:06;;;;;;;1.33;0.60;;;;;;;;;;2053104;28;20492;-63
2022/09/02 03:22:26;;;;;;;0.40;0.40;;;;;;;;;;2054183;28;20408;-63
2022/09/02 03:23:45;;;;;;;1.42;0.47;;;;;;;;;;2051050;28;20039;-63
2022/09/02 03:25:08;;;;;;;0.43;0.40;;;;;;;;;;2052179;28;20027;-63
2022/09/02 03:26:27;;;;;;;;;;;;;;;;;;2050502;28;20114;-62
2022/09/02 03:27:46;;;;;;;1.35;0.60;;;;;;;;;;2052384;28;20013;-62
2022/09/02 03:29:06;;;;;;;1.45;0.40;;;;;;;;;;2052232;28;20054;-62
2022/09/02 03:30:26;;;;;;;0.52;0.38;;;;;;;;;;2052174;28;20023;-63
2022/09/02 03:31:45;;;;;;;1.75;0.50;;;;;;;;;;2048251;28;20483;-63
2022/09/02 03:33:04;;;;;;;1.27;0.40;;;;;;;;;;2050178;28;20161;-63
2022/09/02 03:34:23;;;;;;;0.50;0.50;;;;;;;;;;2051857;28;20031;-63
2022/09/02 03:35:43;;;;;;;0.47;0.30;;;;;;;;;;2052656;28;20062;-62
2022/09/02 03:37:02;;;;;;;0.40;0.30;;;;;;;;;;2051095;28;20035;-63
2022/09/02 03:38:21;;;;;;;0.47;0.30;;;;;;;;;;2050888;28;20030;-63
2022/09/02 03:39:40;;;;;;;2.97;0.55;;;;;;;;;;2051405;28;20387;-63
2022/09/02 03:40:59;;;;;;;1.65;0.20;;;;;;;;;;2052836;28;20459;-63
2022/09/02 03:42:18;;;;;;;2.55;0.60;;;;;;;;;;2050403;28;20129;-63
2022/09/02 03:43:37;;;;;;;2.25;0.40;;;;;;;;;;2050512;28;20500;-63
2022/09/02 03:44:56;;;;;;;2.55;0.60;;;;;;;;;;2051988;28;20035;-63
2022/09/02 03:46:15;;;;;;;0.82;0.47;;;;;;;;;;2053422;28;20027;-63
2022/09/02 03:47:35;;;;;;;0.68;0.40;;;;;;;;;;2049687;28;20071;-63
2022/09/02 03:48:54;;;;;;;0.95;0.40;;;;;;;;;;2048009;28;20043;-63
2022/09/02 03:50:12;;;;;;;1.20;0.40;;;;;;;;;;2049383;28;20035;-63
2022/09/02 03:51:32;;;;;;;0.63;0.40;;;;;;;;;;2051192;28;20047;-63
2022/09/02 03:52:51;;;;;;;1.75;0.52;;;;;;;;;;2051098;28;20043;-62
2022/09/02 03:54:10;;;;;;;2.67;0.65;;;;;;;;;;2051132;28;20035;-63
2022/09/02 03:55:29;;;;;;;0.43;0.38;;;;;;;;;;2052206;28;20453;-63
2022/09/02 03:56:48;;;;;;;0.50;0.50;;;;;;;;;;2051444;28;20022;-62
2022/09/02 03:58:07;;;;;;;0.65;0.40;;;;;;;;;;2051492;28;20035;-63
2022/09/02 03:59:26;;;;;;;0.43;0.43;;;;;;;;;;2048844;28;20397;-63
2022/09/02 04:00:49;;;;;;;1.60;0.55;;;;;;;;;;2049861;28;20035;-63
2022/09/02 04:02:07;;;;;;;;;;;;;;;;;;2050778;28;20038;-63
2022/09/02 04:03:27;;;;;;;3.53;0.40;;;;;;;;;;2051670;28;19950;-62
2022/09/02 04:04:46;;;;;;;1.75;0.50;;;;;;;;;;2047884;28;20035;-63
2022/09/02 04:06:08;;;;;;;1.75;0.47;;;;;;;;;;2050516;28;20118;-63
2022/09/02 04:07:27;;;;;;;0.50;0.50;;;;;;;;;;2049545;28;20384;-63
2022/09/02 04:08:46;;;;;;;3.22;0.50;;;;;;;;;;2051249;28;20043;-63
2022/09/02 04:10:07;;;;;;;0.88;0.40;;;;;;;;;;2052390;28;20054;-62
2022/09/02 04:11:27;;;;;;;2.47;0.60;;;;;;;;;;2051823;28;20026;-62
2022/09/02 04:12:46;;;;;;;1.45;0.50;;;;;;;;;;2050719;28;20027;-63
2022/09/02 04:14:06;;;;;;;1.13;0.70;;;;;;;;;;2052243;28;20027;-62
2022/09/02 04:15:25;;;;;;;2.38;0.60;;;;;;;;;;2047572;28;20035;-62
2022/09/02 04:16:44;;;;;;;1.50;0.90;;;;;;;;;;2052449;28;20030;-63
2022/09/02 04:18:03;;;;;;;1.25;0.60;;;;;;;;;;2050594;28;20030;-63
2022/09/02 04:19:22;;;;;;;1.20;0.38;;;;;;;;;;2042631;29;20417;-62
2022/09/02 04:20:42;;;;;;;1.67;0.50;;;;;;;;;;2044297;28;20031;-63
2022/09/02 04:22:00;;;;;;;2.55;0.60;;;;;;;;;;2053494;28;20066;-63
2022/09/02 04:23:19;;;;;;;0.40;0.40;;;;;;;;;;2048828;28;20031;-64
2022/09/02 04:24:39;;;;;;;1.83;0.40;;;;;;;;;;2048887;28;20404;-62
2022/09/02 04:25:58;;;;;;;0.45;0.45;;;;;;;;;;2050706;28;20043;-63
2022/09/02 04:27:17;;;;;;;3.97;0.60;;;;;;;;;;2051150;28;20024;-62
2022/09/02 04:28:36;;;;;;;1.70;0.50;;;;;;;;;;2048501;28;20031;-63
2022/09/02 04:29:55;;;;;;;3.88;0.60;;;;;;;;;;2047957;28;20027;-63
2022/09/02 04:31:16;;;;;;;0.98;0.40;;;;;;;;;;2047994;28;20492;-64
2022/09/02 04:32:36;;;;;;;2.63;0.60;;;;;;;;;;2050601;28;20432;-64
2022/09/02 04:33:55;;;;;;;1.63;0.45;;;;;;;;;;2052773;28;20027;-64
2022/09/02 04:35:14;;;;;;;3.10;0.50;;;;;;;;;;2050963;28;20123;-63
2022/09/02 04:36:33;;;;;;;1.05;0.50;;;;;;;;;;2047674;28;20050;-63
2022/09/02 04:37:52;;;;;;;0.88;0.32;;;;;;;;;;2050122;28;20035;-63
2022/09/02 04:39:11;;;;;;;1.08;0.40;;;;;;;;;;2049410;28;20035;-64
2022/09/02 04:40:30;;;;;;;2.38;0.47;;;;;;;;;;2051567;28;20118;-63
2022/09/02 04:41:49;;;;;;;2.08;0.38;;;;;;;;;;2051518;28;20425;-64
2022/09/02 04:43:08;;;;;;;1.05;0.52;;;;;;;;;;2048066;28;20039;-63
2022/09/02 04:44:27;;;;;;;1.80;0.65;;;;;;;;;;2052041;28;20027;-62
2022/09/02 04:45:46;;;;;;;4.60;0.65;;;;;;;;;;2048410;28;20024;-63
2022/09/02 04:47:05;;;;;;;0.77;0.38;;;;;;;;;;2049923;28;20046;-62
2022/09/02 04:48:24;;;;;;;1.17;0.40;;;;;;;;;;2049319;28;20027;-63
2022/09/02 04:49:43;;;;;;;3.72;0.60;;;;;;;;;;2052333;28;20035;-63
2022/09/02 04:51:03;;;;;;;1.02;0.60;;;;;;;;;;2048323;28;20027;-63
2022/09/02 04:52:22;;;;;;;0.70;0.40;;;;;;;;;;2048712;28;20113;-63
2022/09/02 04:53:42;;;;;;;2.88;0.60;;;;;;;;;;2049115;28;20106;-63
2022/09/02 04:55:02;;;;;;;0.30;0.30;;;;;;;;;;2045990;28;20031;-63
2022/09/02 04:56:23;;;;;;;1.13;0.52;;;;;;;;;;2050114;28;20059;-63
2022/09/02 04:57:42;;;;;;;0.60;0.20;;;;;;;;;;2051420;28;20413;-62
2022/09/02 04:59:00;;;;;;;0.90;0.43;;;;;;;;;;2049982;28;20396;-62
2022/09/02 05:00:19;;;;;;;0.40;0.40;;;;;;;;;;2049003;28;20023;-62
2022/09/02 05:01:40;;;;;;;0.95;0.47;;;;;;;;;;2051690;28;20039;-62
2022/09/02 05:02:59;;;;;;;2.13;0.35;;;;;;;;;;2051355;28;20106;-63
2022/09/02 05:04:18;;;;;;;2.25;0.50;;;;;;;;;;2048747;28;20112;-62
2022/09/02 05:05:38;;;;;;;2.03;0.60;;;;;;;;;;2050427;28;20031;-62
2022/09/02 05:07:00;;;;;;;0.50;0.30;;;;;;;;;;2050374;28;20031;-62
2022/09/02 05:08:21;;;;;;;1.10;0.40;;;;;;;;;;2046051;28;20023;-63
2022/09/02 05:09:40;;;;;;;1.85;0.40;;;;;;;;;;2048293;28;20034;-63
2022/09/02 05:11:01;;;;;;;1.40;0.70;;;;;;;;;;2051912;28;20492;-62
2022/09/02 05:12:20;;;;;;;0.80;0.47;;;;;;;;;;2051454;28;20079;-62
2022/09/02 05:13:39;;;;;;;2.55;0.75;;;;;;;;;;2048893;28;20050;-62
2022/09/02 05:14:59;;;;;;;5.72;0.77;;;;;;;;;;2050647;28;20042;-62
2022/09/02 05:16:24;;;;;;;1.88;0.50;;;;;;;;;;2049930;28;20035;-62
2022/09/02 05:17:45;;;;;;;4.18;0.70;;;;;;;;;;2049858;28;20106;-62
2022/09/02 05:19:04;;;;;;;1.90;0.60;;;;;;;;;;2046434;28;20114;-63
2022/09/02 05:20:24;;;;;;;0.77;0.40;;;;;;;;;;2051381;28;20043;-63
2022/09/02 05:21:43;;;;;;;0.57;0.30;;;;;;;;;;2051502;28;20059;-62
2022/09/02 05:23:02;;;;;;;1.30;0.70;;;;;;;;;;2050936;28;20030;-63
2022/09/02 05:24:21;;;;;;;1.67;0.47;;;;;;;;;;2049884;28;20131;-63
2022/09/02 05:25:40;;;;;;;1.33;0.50;;;;;;;;;;2050884;28;20404;-63
2022/09/02 05:26:59;;;;;;;3.03;0.40;;;;;;;;;;2051574;28;20035;-63
2022/09/02 05:28:18;;;;;;;1.33;0.50;;;;;;;;;;2042285;29;20027;-63
2022/09/02 05:29:37;;;;;;;1.30;0.70;;;;;;;;;;2047249;28;20039;-62
2022/09/02 05:31:01;;;;;;;2.00;0.80;;;;;;;;;;2050633;28;20031;-63
2022/09/02 05:32:20;;;;;;;1.85;0.52;;;;;;;;;;2050818;28;20023;-63
2022/09/02 05:33:40;;;;;;;1.45;0.45;;;;;;;;;;2050160;28;20062;-63
2022/09/02 05:34:58;;;;;;;0.93;0.40;;;;;;;;;;2044049;28;20027;-63
2022/09/02 05:36:19;;;;;;;1.40;0.50;;;;;;;;;;2034354;29;20039;-62
2022/09/02 05:37:37;;;;;;;2.03;0.65;;;;;;;;;;2046824;28;20039;-63
2022/09/02 05:38:57;;;;;;;1.88;0.60;;;;;;;;;;2048989;28;20035;-62
2022/09/02 05:40:16;;;;;;;2.08;0.60;;;;;;;;;;2051418;28;20027;-62
2022/09/02 05:41:35;;;;;;;2.70;0.50;;;;;;;;;;2051689;28;20500;-62
2022/09/02 05:42:54;;;;;;;0.55;0.30;;;;;;;;;;2050878;28;20031;-62
2022/09/02 05:44:13;;;;;;;0.85;0.45;;;;;;;;;;2049859;28;20035;-62
2022/09/02 05:45:33;;;;;;;2.03;0.43;;;;;;;;;;2049779;28;20031;-64
2022/09/02 05:46:52;;;;;;;2.50;0.50;;;;;;;;;;2050832;28;20098;-63
2022/09/02 05:49:48;;;;;;;1.40;0.63;;;;;;;;;;2052134;28;20067;-63
2022/09/02 05:51:07;;;;;;;2.65;0.77;;;;;;;;;;2049705;28;20059;-62
2022/09/02 05:52:27;;;;;;;1.35;0.57;;;;;;;;;;2049652;28;20035;-62
2022/09/02 05:53:46;;;;;;;1.02;0.45;;;;;;;;;;2048842;28;20038;-62
2022/09/02 05:55:05;;;;;;;1.65;0.60;;;;;;;;;;2048452;28;20031;-62
2022/09/02 05:56:26;;;;;;;3.95;0.70;;;;;;;;;;2048209;28;20039;-62
2022/09/02 05:57:45;;;;;;;0.50;0.47;;;;;;;;;;2047993;28;20031;-63
2022/09/02 05:59:06;;;;;;;1.95;0.60;;;;;;;;;;2050250;28;20208;-63
2022/09/02 06:00:25;;;;;;;2.67;0.50;;;;;;;;;;2052144;28;20098;-62
2022/09/02 06:01:44;;;;;;;2.35;0.52;;;;;;;;;;2051515;28;20027;-62
2022/09/02 06:03:03;;;;;;;2.13;0.60;;;;;;;;;;2050465;28;20019;-63
2022/09/02 06:04:22;;;;;;;0.50;0.40;;;;;;;;;;2048483;28;20122;-62
2022/09/02 06:05:41;;;;;;;0.45;0.32;;;;;;;;;;2050507;28;20476;-62
2022/09/02 06:07:00;;;;;;;1.42;0.30;;;;;;;;;;2051655;28;20027;-63
2022/09/02 06:08:19;;;;;;;0.73;0.30;;;;;;;;;;2050665;28;20114;-62
2022/09/02 06:09:39;;;;;;;2.30;0.73;;;;;;;;;;2048616;28;20031;-62
2022/09/02 06:11:00;;;;;;;2.20;0.43;;;;;;;;;;2050417;28;20437;-62
2022/09/02 06:12:20;;;;;;;1.15;0.40;;;;;;;;;;2051112;28;20032;-63
2022/09/02 06:13:40;;;;;;;2.22;0.40;;;;;;;;;;2051542;28;20516;-62
2022/09/02 06:14:58;;;;;;;3.45;0.40;;;;;;;;;;2049474;28;20030;-63
2022/09/02 06:16:18;;;;;;;2.70;0.60;;;;;;;;;;2052099;28;20047;-62
2022/09/02 06:17:37;;;;;;;1.60;0.50;;;;;;;;;;2049611;28;20067;-62
2022/09/02 06:18:56;;;;;;;1.27;0.40;;;;;;;;;;2051799;28;20031;-62
2022/09/02 06:20:15;;;;;;;3.70;0.88;;;;;;;;;;2050855;28;20035;-62
2022/09/02 06:21:35;;;;;;;1.38;0.73;;;;;;;;;;2050647;28;20027;-62
2022/09/02 06:22:54;;;;;;;3.50;0.40;;;;;;;;;;2050976;28;20028;-63
2022/09/02 06:24:13;;;;;;;2.65;0.50;;;;;;;;;;2053678;28;20035;-63
2022/09/02 06:25:34;;;;;;;1.13;0.30;;;;;;;;;;2052416;28;20404;-63
2022/09/02 06:26:54;;;;;;;3.03;0.50;;;;;;;;;;2053243;28;20035;-63
2022/09/02 06:28:13;;;;;;;0.35;0.30;;;;;;;;;;2051413;28;20409;-63
2022/09/02 06:29:32;;;;;;;0.55;0.20;;;;;;;;;;2050396;28;20476;-63
2022/09/02 06:30:51;;;;;;;0.38;0.28;;;;;;;;;;2051443;28;20043;-64
2022/09/02 06:32:10;;;;;;;1.70;0.38;;;;;;;;;;2051576;28;20111;-63
2022/09/02 06:33:28;;;;;;;0.35;0.22;;;;;;;;;;2050161;28;20035;-63
2022/09/02 06:34:47;;;;;;;0.55;0.40;;;;;;;;;;2050119;28;20043;-63
2022/09/02 06:36:07;;;;;;;1.23;0.30;;;;;;;;;;2052977;28;20058;-63
2022/09/02 06:37:26;;;;;;;1.40;0.40;;;;;;;;;;2051717;28;20043;-63
2022/09/02 06:38:48;;;;;;;4.38;0.75;;;;;;;;;;2050866;28;20026;-63
2022/09/02 06:40:07;;;;;;;0.35;0.28;;;;;;;;;;2050698;28;20606;-64
2022/09/02 06:41:28;;;;;;;0.65;0.30;;;;;;;;;;2053912;28;20035;-63
2022/09/02 06:42:48;;;;;;;0.70;0.35;;;;;;;;;;2052496;28;20062;-64
2022/09/02 06:44:08;;;;;;;0.90;0.30;;;;;;;;;;2052412;28;20023;-64
2022/09/02 06:45:27;;;;;;;0.75;0.40;;;;;;;;;;2049280;28;20505;-64
2022/09/02 06:46:47;;;;;;;3.15;0.43;;;;;;;;;;2052901;28;20023;-64
2022/09/02 06:48:06;;;;;;;3.45;0.75;;;;;;;;;;2050981;28;20027;-63
2022/09/02 06:49:26;;;;;;;0.50;0.30;;;;;;;;;;2053501;28;20031;-64
2022/09/02 06:50:45;;;;;;;1.70;0.60;;;;;;;;;;2052949;28;20039;-64
2022/09/02 06:52:04;;;;;;;1.88;0.40;;;;;;;;;;2053431;28;20567;-63
2022/09/02 06:53:23;;;;;;;0.40;0.28;;;;;;;;;;2052125;28;20587;-64
2022/09/02 06:54:42;;;;;;;0.60;0.20;;;;;;;;;;2051866;28;20023;-64
2022/09/02 06:56:05;;;;;;;0.77;0.30;;;;;;;;;;2050462;28;20106;-64
2022/09/02 06:57:25;;;;;;;0.20;0.20;;;;;;;;;;2051724;28;20036;-63
2022/09/02 06:58:44;;;;;;;1.85;0.30;;;;;;;;;;2053298;28;20039;-63
2022/09/02 07:00:04;;;;;;;0.90;0.35;;;;;;;;;;2050740;28;20035;-63
2022/09/02 07:01:28;;;;;;;1.67;0.40;;;;;;;;;;2053344;28;20031;-63
2022/09/02 07:05:08;;;;;;;1.88;0.38;;;;;;;;;;2053089;28;20121;-63
2022/09/02 07:06:08;;;;;;;2.97;0.45;;;;;;;;;;2052119;28;20114;-63
2022/09/02 07:07:27;;;;;;;1.63;0.38;;;;;;;;;;2049674;28;20032;-63
2022/09/02 07:08:46;;;;;;;0.30;0.20;;;;;;;;;;2052116;28;20437;-63
2022/09/02 07:10:07;;;;;;;1.85;0.43;;;;;;;;;;2052518;28;20496;-63
2022/09/02 07:11:26;;;;;;;0.38;0.20;;;;;;;;;;2052629;28;20083;-63
2022/09/02 07:12:45;;;;;;;1.38;0.20;;;;;;;;;;2052901;28;20558;-63
2022/09/02 07:14:05;;;;;;;1.85;0.20;;;;;;;;;;2051864;28;20069;-63
2022/09/02 07:15:24;;;;;;;0.98;0.20;;;;;;;;;;2051006;28;20071;-63
2022/09/02 07:16:48;;;;;;;0.43;0.30;;;;;;;;;;2049764;28;20146;-63
2022/09/02 07:18:07;;;;;;;1.83;0.28;;;;;;;;;;2052843;28;20452;-63
2022/09/02 07:19:26;;;;;;;0.25;0.20;;;;;;;;;;2050603;28;20054;-63
2022/09/02 07:20:46;;;;;;;0.32;0.10;;;;;;;;;;2050466;28;20027;-63
2022/09/02 07:22:06;;;;;;;1.13;0.22;;;;;;;;;;2053326;28;20444;-63
2022/09/02 07:23:25;;;;;;;0.10;0.10;;;;;;;;;;2052591;28;20122;-63
2022/09/02 07:24:44;;;;;;;0.55;0.10;;;;;;;;;;2052266;28;20408;-64
2022/09/02 07:26:03;;;;;;;0.65;0.30;;;;;;;;;;2050264;28;20070;-63
2022/09/02 07:27:22;;;;;;;0.63;0.30;;;;;;;;;;2054140;28;20503;-63
2022/09/02 07:28:42;;;;;;;0.40;0.20;;;;;;;;;;2051511;28;20027;-63
2022/09/02 07:30:00;;;;;;;2.00;0.30;;;;;;;;;;2050750;28;20035;-65
2022/09/02 07:31:19;;;;;;;0.47;0.30;;;;;;;;;;2049310;28;20023;-64
2022/09/02 07:32:38;;;;;;;0.80;0.50;;;;;;;;;;2050874;28;20488;-64
2022/09/02 07:33:58;;;;;;;2.28;0.38;;;;;;;;;;2051490;28;20503;-64
2022/09/02 07:35:16;;;;;;;3.08;0.32;;;;;;;;;;2050351;28;20036;-63
2022/09/02 07:36:36;;;;;;;1.02;0.25;;;;;;;;;;2049872;28;20043;-63
2022/09/02 07:37:54;;;;;;;2.35;0.20;;;;;;;;;;2049029;28;20031;-64
2022/09/02 07:39:14;;;;;;;0.47;0.20;;;;;;;;;;2052325;28;20024;-64
2022/09/02 07:40:35;;;;;;;1.00;0.40;;;;;;;;;;2050257;28;20027;-64
2022/09/02 07:41:54;;;;;;;1.63;0.30;;;;;;;;;;2049924;28;20383;-63
2022/09/02 07:43:13;;;;;;;0.70;0.30;;;;;;;;;;2052897;28;20126;-64
2022/09/02 07:44:32;;;;;;;1.42;0.35;;;;;;;;;;2051956;28;20027;-65
2022/09/02 07:45:52;;;;;;;0.68;0.30;;;;;;;;;;2051744;28;20035;-64
2022/09/02 07:47:11;;;;;;;0.88;0.25;;;;;;;;;;2051751;28;20031;-63
2022/09/02 07:48:30;;;;;;;0.77;0.38;;;;;;;;;;2050582;28;20027;-64
2022/09/02 07:49:49;;;;;;;1.90;0.30;;;;;;;;;;2051689;28;20484;-62
2022/09/02 07:51:08;;;;;;;2.05;0.28;;;;;;;;;;2050972;28;20553;-63
2022/09/02 07:52:27;;;;;;;1.02;0.20;;;;;;;;;;2052665;28;20039;-63
2022/09/02 07:53:46;;;;;;;0.75;0.20;;;;;;;;;;2052644;28;20500;-63
2022/09/02 07:55:05;;;;;;;2.40;0.30;;;;;;;;;;2051687;28;20031;-63
2022/09/02 07:56:24;;;;;;;0.90;0.35;;;;;;;;;;2049583;28;20039;-63
2022/09/02 07:57:44;;;;;;;1.52;0.25;;;;;;;;;;2050742;28;20576;-63
2022/09/02 07:59:03;;;;;;;1.88;0.20;;;;;;;;;;2051598;28;20705;-64
2022/09/02 08:00:26;;;;;;;0.38;0.20;;;;;;;;;;2053986;28;20169;-63